sensor_id;sensor_type;location;lat;lon;timestamp;P1;durP1;ratioP1;P2;durP2;ratioP2
70253;SDS011;57649;42.968;1.608;2023-01-30T00:01:30;31.35;;;20.75;;
70253;SDS011;57649;42.968;1.608;2023-01-30T00:03:57;31.67;;;22.08;;
70253;SDS011;57649;42.968;1.608;2023-01-30T00:06:23;31.08;;;22.42;;
70253;SDS011;57649;42.968;1.608;2023-01-30T00:08:49;31.35;;;22.83;;
70253;SDS011;57649;42.968;1.608;2023-01-30T00:11:14;26.23;;;19.63;;
70253;SDS011;57649;42.968;1.608;2023-01-30T00:13:42;29.48;;;20.73;;
70253;SDS011;57649;42.968;1.608;2023-01-30T00:16:08;30.33;;;20.58;;
70253;SDS011;57649;42.968;1.608;2023-01-30T00:18:34;32.20;;;21.88;;
70253;SDS011;57649;42.968;1.608;2023-01-30T00:21:01;30.23;;;22.50;;
70253;SDS011;57649;42.968;1.608;2023-01-30T00:23:29;30.48;;;22.33;;
70253;SDS011;57649;42.968;1.608;2023-01-30T00:25:56;31.70;;;22.27;;
70253;SDS011;57649;42.968;1.608;2023-01-30T00:28:22;25.55;;;17.40;;
70253;SDS011;57649;42.968;1.608;2023-01-30T00:30:48;23.38;;;16.30;;
70253;SDS011;57649;42.968;1.608;2023-01-30T00:33:14;23.67;;;16.30;;
70253;SDS011;57649;42.968;1.608;2023-01-30T00:35:47;26.80;;;19.05;;
70253;SDS011;57649;42.968;1.608;2023-01-30T00:38:14;27.05;;;18.45;;
70253;SDS011;57649;42.968;1.608;2023-01-30T00:40:40;28.90;;;19.25;;
70253;SDS011;57649;42.968;1.608;2023-01-30T00:43:06;32.88;;;20.08;;
70253;SDS011;57649;42.968;1.608;2023-01-30T00:45:52;30.13;;;19.98;;
70253;SDS011;57649;42.968;1.608;2023-01-30T00:48:37;29.45;;;20.08;;
70253;SDS011;57649;42.968;1.608;2023-01-30T00:51:03;29.20;;;20.92;;
70253;SDS011;57649;42.968;1.608;2023-01-30T00:53:28;25.50;;;17.83;;
70253;SDS011;57649;42.968;1.608;2023-01-30T00:55:54;23.92;;;17.50;;
70253;SDS011;57649;42.968;1.608;2023-01-30T00:58:20;26.70;;;17.48;;
70253;SDS011;57649;42.968;1.608;2023-01-30T01:00:46;25.30;;;17.58;;
70253;SDS011;57649;42.968;1.608;2023-01-30T01:03:12;26.35;;;18.40;;
70253;SDS011;57649;42.968;1.608;2023-01-30T01:05:37;26.17;;;16.45;;
70253;SDS011;57649;42.968;1.608;2023-01-30T01:08:03;25.25;;;17.50;;
70253;SDS011;57649;42.968;1.608;2023-01-30T01:10:29;23.42;;;17.00;;
70253;SDS011;57649;42.968;1.608;2023-01-30T01:12:55;26.00;;;17.67;;
70253;SDS011;57649;42.968;1.608;2023-01-30T01:15:21;25.05;;;17.45;;
70253;SDS011;57649;42.968;1.608;2023-01-30T01:17:48;23.48;;;16.83;;
70253;SDS011;57649;42.968;1.608;2023-01-30T01:20:14;25.80;;;18.05;;
70253;SDS011;57649;42.968;1.608;2023-01-30T01:22:41;27.48;;;17.90;;
70253;SDS011;57649;42.968;1.608;2023-01-30T01:25:07;27.02;;;18.98;;
70253;SDS011;57649;42.968;1.608;2023-01-30T01:27:34;27.63;;;17.30;;
70253;SDS011;57649;42.968;1.608;2023-01-30T01:30:00;26.48;;;17.73;;
70253;SDS011;57649;42.968;1.608;2023-01-30T01:32:25;26.70;;;16.88;;
70253;SDS011;57649;42.968;1.608;2023-01-30T01:34:51;25.90;;;17.08;;
70253;SDS011;57649;42.968;1.608;2023-01-30T01:37:16;26.13;;;19.25;;
70253;SDS011;57649;42.968;1.608;2023-01-30T01:39:41;28.90;;;19.50;;
70253;SDS011;57649;42.968;1.608;2023-01-30T01:42:28;22.40;;;16.30;;
70253;SDS011;57649;42.968;1.608;2023-01-30T01:50:24;21.38;;;14.55;;
70253;SDS011;57649;42.968;1.608;2023-01-30T01:53:11;19.35;;;13.80;;
70253;SDS011;57649;42.968;1.608;2023-01-30T01:55:40;18.15;;;13.50;;
70253;SDS011;57649;42.968;1.608;2023-01-30T01:58:10;19.83;;;13.13;;
70253;SDS011;57649;42.968;1.608;2023-01-30T02:00:49;18.38;;;12.20;;
70253;SDS011;57649;42.968;1.608;2023-01-30T02:03:16;17.17;;;12.65;;
70253;SDS011;57649;42.968;1.608;2023-01-30T02:05:45;15.68;;;11.07;;
70253;SDS011;57649;42.968;1.608;2023-01-30T02:08:16;16.65;;;11.93;;
70253;SDS011;57649;42.968;1.608;2023-01-30T02:13:22;14.10;;;10.35;;
70253;SDS011;57649;42.968;1.608;2023-01-30T02:15:48;12.75;;;9.25;;
70253;SDS011;57649;42.968;1.608;2023-01-30T02:18:14;13.55;;;9.10;;
70253;SDS011;57649;42.968;1.608;2023-01-30T02:39:48;12.70;;;9.45;;
70253;SDS011;57649;42.968;1.608;2023-01-30T02:47:46;11.32;;;8.00;;
70253;SDS011;57649;42.968;1.608;2023-01-30T02:50:19;9.82;;;7.47;;
70253;SDS011;57649;42.968;1.608;2023-01-30T02:52:49;11.57;;;8.15;;
70253;SDS011;57649;42.968;1.608;2023-01-30T02:55:19;10.98;;;8.20;;
70253;SDS011;57649;42.968;1.608;2023-01-30T02:57:47;10.15;;;7.97;;
70253;SDS011;57649;42.968;1.608;2023-01-30T03:00:13;10.52;;;7.70;;
70253;SDS011;57649;42.968;1.608;2023-01-30T03:02:52;9.55;;;7.60;;
70253;SDS011;57649;42.968;1.608;2023-01-30T03:05:40;12.30;;;8.07;;
70253;SDS011;57649;42.968;1.608;2023-01-30T03:09:00;11.15;;;7.57;;
70253;SDS011;57649;42.968;1.608;2023-01-30T03:11:33;9.10;;;7.35;;
70253;SDS011;57649;42.968;1.608;2023-01-30T03:14:25;11.55;;;7.80;;
70253;SDS011;57649;42.968;1.608;2023-01-30T03:16:58;10.07;;;6.93;;
70253;SDS011;57649;42.968;1.608;2023-01-30T03:19:25;12.73;;;7.72;;
70253;SDS011;57649;42.968;1.608;2023-01-30T03:21:53;10.98;;;7.55;;
70253;SDS011;57649;42.968;1.608;2023-01-30T03:24:18;10.18;;;6.85;;
70253;SDS011;57649;42.968;1.608;2023-01-30T03:26:45;11.32;;;7.50;;
70253;SDS011;57649;42.968;1.608;2023-01-30T03:29:16;10.55;;;7.15;;
70253;SDS011;57649;42.968;1.608;2023-01-30T03:31:42;9.38;;;6.97;;
70253;SDS011;57649;42.968;1.608;2023-01-30T03:34:07;11.40;;;7.85;;
70253;SDS011;57649;42.968;1.608;2023-01-30T03:36:33;9.20;;;7.32;;
70253;SDS011;57649;42.968;1.608;2023-01-30T03:38:58;9.93;;;7.57;;
70253;SDS011;57649;42.968;1.608;2023-01-30T03:41:24;9.45;;;6.88;;
70253;SDS011;57649;42.968;1.608;2023-01-30T03:43:49;10.95;;;7.82;;
70253;SDS011;57649;42.968;1.608;2023-01-30T03:46:14;9.23;;;7.00;;
70253;SDS011;57649;42.968;1.608;2023-01-30T03:48:40;9.73;;;7.60;;
70253;SDS011;57649;42.968;1.608;2023-01-30T03:51:05;9.68;;;7.25;;
70253;SDS011;57649;42.968;1.608;2023-01-30T03:53:31;10.27;;;7.15;;
70253;SDS011;57649;42.968;1.608;2023-01-30T03:55:56;8.80;;;7.07;;
70253;SDS011;57649;42.968;1.608;2023-01-30T03:58:21;10.18;;;6.40;;
70253;SDS011;57649;42.968;1.608;2023-01-30T04:00:47;9.55;;;6.45;;
70253;SDS011;57649;42.968;1.608;2023-01-30T04:03:12;9.82;;;7.10;;
70253;SDS011;57649;42.968;1.608;2023-01-30T04:05:41;9.52;;;7.00;;
70253;SDS011;57649;42.968;1.608;2023-01-30T04:08:07;9.85;;;7.43;;
70253;SDS011;57649;42.968;1.608;2023-01-30T04:10:32;11.45;;;8.40;;
70253;SDS011;57649;42.968;1.608;2023-01-30T04:12:57;10.38;;;7.68;;
70253;SDS011;57649;42.968;1.608;2023-01-30T04:15:23;9.43;;;7.55;;
70253;SDS011;57649;42.968;1.608;2023-01-30T04:17:48;20.15;;;13.57;;
70253;SDS011;57649;42.968;1.608;2023-01-30T04:20:14;20.00;;;13.40;;
70253;SDS011;57649;42.968;1.608;2023-01-30T04:22:39;14.80;;;11.02;;
70253;SDS011;57649;42.968;1.608;2023-01-30T04:25:05;20.90;;;13.77;;
70253;SDS011;57649;42.968;1.608;2023-01-30T04:27:30;19.85;;;11.68;;
70253;SDS011;57649;42.968;1.608;2023-01-30T04:29:56;15.15;;;11.02;;
70253;SDS011;57649;42.968;1.608;2023-01-30T04:32:21;15.35;;;10.68;;
70253;SDS011;57649;42.968;1.608;2023-01-30T04:34:47;11.80;;;8.80;;
70253;SDS011;57649;42.968;1.608;2023-01-30T04:37:12;7.72;;;6.32;;
70253;SDS011;57649;42.968;1.608;2023-01-30T04:39:38;10.68;;;6.75;;
70253;SDS011;57649;42.968;1.608;2023-01-30T04:42:03;9.98;;;5.22;;
70253;SDS011;57649;42.968;1.608;2023-01-30T04:44:29;8.20;;;5.45;;
70253;SDS011;57649;42.968;1.608;2023-01-30T04:46:54;9.00;;;5.40;;
70253;SDS011;57649;42.968;1.608;2023-01-30T04:49:19;10.52;;;5.10;;
70253;SDS011;57649;42.968;1.608;2023-01-30T04:51:45;8.73;;;5.25;;
70253;SDS011;57649;42.968;1.608;2023-01-30T04:54:10;7.45;;;5.97;;
70253;SDS011;57649;42.968;1.608;2023-01-30T04:56:36;8.40;;;5.07;;
70253;SDS011;57649;42.968;1.608;2023-01-30T04:59:01;7.60;;;5.70;;
70253;SDS011;57649;42.968;1.608;2023-01-30T05:01:34;7.05;;;5.25;;
70253;SDS011;57649;42.968;1.608;2023-01-30T05:04:01;8.98;;;6.22;;
70253;SDS011;57649;42.968;1.608;2023-01-30T05:06:28;9.10;;;5.65;;
70253;SDS011;57649;42.968;1.608;2023-01-30T05:08:55;8.25;;;5.25;;
70253;SDS011;57649;42.968;1.608;2023-01-30T05:11:21;7.47;;;5.47;;
70253;SDS011;57649;42.968;1.608;2023-01-30T05:13:48;8.30;;;6.32;;
70253;SDS011;57649;42.968;1.608;2023-01-30T05:16:14;8.18;;;5.90;;
70253;SDS011;57649;42.968;1.608;2023-01-30T05:18:40;9.57;;;6.20;;
70253;SDS011;57649;42.968;1.608;2023-01-30T05:21:11;8.93;;;5.57;;
70253;SDS011;57649;42.968;1.608;2023-01-30T05:23:38;8.70;;;5.78;;
70253;SDS011;57649;42.968;1.608;2023-01-30T05:26:04;9.20;;;6.05;;
70253;SDS011;57649;42.968;1.608;2023-01-30T05:28:30;8.13;;;5.63;;
70253;SDS011;57649;42.968;1.608;2023-01-30T05:31:04;11.77;;;6.47;;
70253;SDS011;57649;42.968;1.608;2023-01-30T05:33:34;7.68;;;5.53;;
70253;SDS011;57649;42.968;1.608;2023-01-30T05:36:00;8.45;;;6.50;;
70253;SDS011;57649;42.968;1.608;2023-01-30T05:38:26;7.28;;;6.03;;
70253;SDS011;57649;42.968;1.608;2023-01-30T05:40:58;11.68;;;6.43;;
70253;SDS011;57649;42.968;1.608;2023-01-30T05:43:30;12.90;;;6.60;;
70253;SDS011;57649;42.968;1.608;2023-01-30T05:45:57;10.15;;;6.45;;
70253;SDS011;57649;42.968;1.608;2023-01-30T05:48:23;10.23;;;6.35;;
70253;SDS011;57649;42.968;1.608;2023-01-30T05:50:50;8.63;;;6.38;;
70253;SDS011;57649;42.968;1.608;2023-01-30T05:53:16;9.10;;;6.32;;
70253;SDS011;57649;42.968;1.608;2023-01-30T05:55:42;13.38;;;6.55;;
70253;SDS011;57649;42.968;1.608;2023-01-30T05:58:08;13.43;;;6.47;;
70253;SDS011;57649;42.968;1.608;2023-01-30T06:00:34;11.82;;;6.78;;
70253;SDS011;57649;42.968;1.608;2023-01-30T06:02:59;10.18;;;6.90;;
70253;SDS011;57649;42.968;1.608;2023-01-30T06:05:24;9.90;;;7.28;;
70253;SDS011;57649;42.968;1.608;2023-01-30T06:07:50;11.73;;;7.43;;
70253;SDS011;57649;42.968;1.608;2023-01-30T06:10:15;13.38;;;8.65;;
70253;SDS011;57649;42.968;1.608;2023-01-30T06:12:41;9.05;;;7.07;;
70253;SDS011;57649;42.968;1.608;2023-01-30T06:15:07;11.70;;;8.20;;
70253;SDS011;57649;42.968;1.608;2023-01-30T06:17:33;12.82;;;7.30;;
70253;SDS011;57649;42.968;1.608;2023-01-30T06:19:58;15.80;;;10.25;;
70253;SDS011;57649;42.968;1.608;2023-01-30T06:22:24;13.25;;;9.07;;
70253;SDS011;57649;42.968;1.608;2023-01-30T06:24:49;13.45;;;9.25;;
70253;SDS011;57649;42.968;1.608;2023-01-30T06:27:14;11.55;;;8.52;;
70253;SDS011;57649;42.968;1.608;2023-01-30T06:29:40;10.95;;;8.02;;
70253;SDS011;57649;42.968;1.608;2023-01-30T06:32:05;12.45;;;8.98;;
70253;SDS011;57649;42.968;1.608;2023-01-30T06:34:31;13.63;;;9.18;;
70253;SDS011;57649;42.968;1.608;2023-01-30T06:36:56;13.80;;;8.98;;
70253;SDS011;57649;42.968;1.608;2023-01-30T06:39:21;14.00;;;9.82;;
70253;SDS011;57649;42.968;1.608;2023-01-30T06:41:47;11.27;;;8.07;;
70253;SDS011;57649;42.968;1.608;2023-01-30T06:44:12;14.90;;;9.05;;
70253;SDS011;57649;42.968;1.608;2023-01-30T06:46:38;12.93;;;9.10;;
70253;SDS011;57649;42.968;1.608;2023-01-30T06:49:03;14.90;;;10.18;;
70253;SDS011;57649;42.968;1.608;2023-01-30T06:51:28;14.80;;;8.85;;
70253;SDS011;57649;42.968;1.608;2023-01-30T06:53:54;12.30;;;8.80;;
70253;SDS011;57649;42.968;1.608;2023-01-30T06:56:20;12.82;;;9.70;;
70253;SDS011;57649;42.968;1.608;2023-01-30T06:58:45;11.52;;;8.45;;
70253;SDS011;57649;42.968;1.608;2023-01-30T07:01:11;14.27;;;8.38;;
70253;SDS011;57649;42.968;1.608;2023-01-30T07:03:36;15.45;;;9.20;;
70253;SDS011;57649;42.968;1.608;2023-01-30T07:06:02;14.13;;;9.70;;
70253;SDS011;57649;42.968;1.608;2023-01-30T07:08:27;12.60;;;9.65;;
70253;SDS011;57649;42.968;1.608;2023-01-30T07:10:53;11.88;;;8.85;;
70253;SDS011;57649;42.968;1.608;2023-01-30T07:13:18;14.60;;;10.63;;
70253;SDS011;57649;42.968;1.608;2023-01-30T07:15:44;14.05;;;7.43;;
70253;SDS011;57649;42.968;1.608;2023-01-30T07:18:10;11.48;;;6.95;;
70253;SDS011;57649;42.968;1.608;2023-01-30T07:20:36;9.93;;;7.10;;
70253;SDS011;57649;42.968;1.608;2023-01-30T07:23:02;8.27;;;5.65;;
70253;SDS011;57649;42.968;1.608;2023-01-30T07:25:28;10.88;;;7.43;;
70253;SDS011;57649;42.968;1.608;2023-01-30T07:27:57;8.20;;;5.80;;
70253;SDS011;57649;42.968;1.608;2023-01-30T07:30:25;8.32;;;6.38;;
70253;SDS011;57649;42.968;1.608;2023-01-30T07:32:52;7.78;;;5.40;;
70253;SDS011;57649;42.968;1.608;2023-01-30T07:35:19;10.70;;;6.55;;
70253;SDS011;57649;42.968;1.608;2023-01-30T07:37:48;8.23;;;6.32;;
70253;SDS011;57649;42.968;1.608;2023-01-30T07:40:15;9.57;;;7.38;;
70253;SDS011;57649;42.968;1.608;2023-01-30T07:42:41;14.82;;;10.57;;
70253;SDS011;57649;42.968;1.608;2023-01-30T07:45:07;18.13;;;11.77;;
70253;SDS011;57649;42.968;1.608;2023-01-30T07:47:33;12.45;;;9.85;;
70253;SDS011;57649;42.968;1.608;2023-01-30T07:49:58;10.57;;;8.50;;
70253;SDS011;57649;42.968;1.608;2023-01-30T07:52:24;13.00;;;8.60;;
70253;SDS011;57649;42.968;1.608;2023-01-30T07:54:49;11.18;;;7.93;;
70253;SDS011;57649;42.968;1.608;2023-01-30T07:57:15;14.50;;;8.77;;
70253;SDS011;57649;42.968;1.608;2023-01-30T07:59:40;10.88;;;7.53;;
70253;SDS011;57649;42.968;1.608;2023-01-30T08:02:08;11.27;;;7.90;;
70253;SDS011;57649;42.968;1.608;2023-01-30T08:04:34;12.82;;;8.15;;
70253;SDS011;57649;42.968;1.608;2023-01-30T08:06:59;11.95;;;8.02;;
70253;SDS011;57649;42.968;1.608;2023-01-30T08:09:25;11.98;;;8.52;;
70253;SDS011;57649;42.968;1.608;2023-01-30T08:11:50;13.77;;;9.00;;
70253;SDS011;57649;42.968;1.608;2023-01-30T08:14:15;16.15;;;12.55;;
70253;SDS011;57649;42.968;1.608;2023-01-30T08:16:41;14.35;;;11.55;;
70253;SDS011;57649;42.968;1.608;2023-01-30T08:19:06;17.73;;;13.90;;
70253;SDS011;57649;42.968;1.608;2023-01-30T08:21:32;20.98;;;16.15;;
70253;SDS011;57649;42.968;1.608;2023-01-30T08:23:57;21.65;;;14.75;;
70253;SDS011;57649;42.968;1.608;2023-01-30T08:26:22;17.60;;;12.13;;
70253;SDS011;57649;42.968;1.608;2023-01-30T08:28:48;15.90;;;11.10;;
70253;SDS011;57649;42.968;1.608;2023-01-30T08:31:14;13.20;;;8.48;;
70253;SDS011;57649;42.968;1.608;2023-01-30T08:33:40;13.13;;;8.27;;
70253;SDS011;57649;42.968;1.608;2023-01-30T08:36:05;13.68;;;10.88;;
70253;SDS011;57649;42.968;1.608;2023-01-30T08:38:31;16.25;;;10.63;;
70253;SDS011;57649;42.968;1.608;2023-01-30T08:40:57;19.10;;;10.73;;
70253;SDS011;57649;42.968;1.608;2023-01-30T08:43:23;15.23;;;11.43;;
70253;SDS011;57649;42.968;1.608;2023-01-30T08:45:51;15.70;;;11.50;;
70253;SDS011;57649;42.968;1.608;2023-01-30T08:48:17;15.30;;;10.45;;
70253;SDS011;57649;42.968;1.608;2023-01-30T08:50:42;15.10;;;11.18;;
70253;SDS011;57649;42.968;1.608;2023-01-30T08:53:08;16.75;;;11.00;;
70253;SDS011;57649;42.968;1.608;2023-01-30T08:55:34;16.15;;;11.38;;
70253;SDS011;57649;42.968;1.608;2023-01-30T08:58:00;18.67;;;10.13;;
70253;SDS011;57649;42.968;1.608;2023-01-30T09:00:25;18.75;;;10.48;;
70253;SDS011;57649;42.968;1.608;2023-01-30T09:02:53;19.25;;;9.98;;
70253;SDS011;57649;42.968;1.608;2023-01-30T09:05:21;15.38;;;9.90;;
70253;SDS011;57649;42.968;1.608;2023-01-30T09:07:48;13.65;;;9.45;;
70253;SDS011;57649;42.968;1.608;2023-01-30T09:10:13;17.13;;;11.38;;
70253;SDS011;57649;42.968;1.608;2023-01-30T09:12:39;14.70;;;11.35;;
70253;SDS011;57649;42.968;1.608;2023-01-30T09:15:05;14.63;;;9.60;;
70253;SDS011;57649;42.968;1.608;2023-01-30T09:17:31;12.38;;;9.25;;
70253;SDS011;57649;42.968;1.608;2023-01-30T09:19:56;14.00;;;10.52;;
70253;SDS011;57649;42.968;1.608;2023-01-30T09:22:22;16.55;;;10.10;;
70253;SDS011;57649;42.968;1.608;2023-01-30T09:24:47;19.20;;;11.55;;
70253;SDS011;57649;42.968;1.608;2023-01-30T09:27:13;18.15;;;11.95;;
70253;SDS011;57649;42.968;1.608;2023-01-30T09:29:38;16.60;;;10.68;;
70253;SDS011;57649;42.968;1.608;2023-01-30T09:32:04;15.55;;;10.60;;
70253;SDS011;57649;42.968;1.608;2023-01-30T09:34:29;15.90;;;10.98;;
70253;SDS011;57649;42.968;1.608;2023-01-30T09:36:55;12.70;;;10.60;;
70253;SDS011;57649;42.968;1.608;2023-01-30T09:39:24;16.00;;;11.02;;
70253;SDS011;57649;42.968;1.608;2023-01-30T09:42:05;14.77;;;11.02;;
70253;SDS011;57649;42.968;1.608;2023-01-30T09:47:14;12.60;;;10.05;;
70253;SDS011;57649;42.968;1.608;2023-01-30T09:55:30;15.23;;;10.35;;
70253;SDS011;57649;42.968;1.608;2023-01-30T09:58:01;15.85;;;11.65;;
70253;SDS011;57649;42.968;1.608;2023-01-30T10:00:36;15.25;;;10.60;;
70253;SDS011;57649;42.968;1.608;2023-01-30T10:03:09;14.35;;;9.40;;
70253;SDS011;57649;42.968;1.608;2023-01-30T10:14:07;12.23;;;8.38;;
70253;SDS011;57649;42.968;1.608;2023-01-30T10:27:37;10.40;;;8.32;;
70253;SDS011;57649;42.968;1.608;2023-01-30T10:30:13;13.43;;;8.98;;
70253;SDS011;57649;42.968;1.608;2023-01-30T10:32:48;20.45;;;9.05;;
70253;SDS011;57649;42.968;1.608;2023-01-30T10:35:19;11.18;;;8.70;;
70253;SDS011;57649;42.968;1.608;2023-01-30T10:40:36;10.75;;;8.50;;
70253;SDS011;57649;42.968;1.608;2023-01-30T10:49:14;12.75;;;8.05;;
70253;SDS011;57649;42.968;1.608;2023-01-30T11:05:26;11.38;;;7.50;;
70253;SDS011;57649;42.968;1.608;2023-01-30T11:07:57;12.05;;;8.88;;
70253;SDS011;57649;42.968;1.608;2023-01-30T11:10:23;14.13;;;10.48;;
70253;SDS011;57649;42.968;1.608;2023-01-30T11:12:54;17.40;;;11.70;;
70253;SDS011;57649;42.968;1.608;2023-01-30T11:15:24;15.68;;;11.35;;
70253;SDS011;57649;42.968;1.608;2023-01-30T11:18:03;15.50;;;11.38;;
70253;SDS011;57649;42.968;1.608;2023-01-30T11:20:30;15.15;;;12.00;;
70253;SDS011;57649;42.968;1.608;2023-01-30T11:23:08;16.10;;;12.40;;
70253;SDS011;57649;42.968;1.608;2023-01-30T11:25:57;15.93;;;10.95;;
70253;SDS011;57649;42.968;1.608;2023-01-30T11:28:24;15.80;;;11.82;;
70253;SDS011;57649;42.968;1.608;2023-01-30T11:30:55;14.80;;;11.27;;
70253;SDS011;57649;42.968;1.608;2023-01-30T11:33:23;16.65;;;11.63;;
70253;SDS011;57649;42.968;1.608;2023-01-30T11:36:04;16.48;;;12.35;;
70253;SDS011;57649;42.968;1.608;2023-01-30T11:38:32;13.98;;;10.80;;
70253;SDS011;57649;42.968;1.608;2023-01-30T11:41:00;14.30;;;10.80;;
70253;SDS011;57649;42.968;1.608;2023-01-30T11:43:27;15.15;;;11.75;;
70253;SDS011;57649;42.968;1.608;2023-01-30T11:45:53;16.98;;;11.88;;
70253;SDS011;57649;42.968;1.608;2023-01-30T11:48:20;15.43;;;11.27;;
70253;SDS011;57649;42.968;1.608;2023-01-30T11:50:54;14.27;;;10.73;;
70253;SDS011;57649;42.968;1.608;2023-01-30T11:53:33;17.75;;;10.95;;
70253;SDS011;57649;42.968;1.608;2023-01-30T11:56:07;16.98;;;10.68;;
70253;SDS011;57649;42.968;1.608;2023-01-30T11:58:34;14.57;;;10.10;;
70253;SDS011;57649;42.968;1.608;2023-01-30T12:01:02;14.00;;;10.53;;
70253;SDS011;57649;42.968;1.608;2023-01-30T12:03:29;13.55;;;10.75;;
70253;SDS011;57649;42.968;1.608;2023-01-30T12:05:56;15.35;;;11.18;;
70253;SDS011;57649;42.968;1.608;2023-01-30T12:08:24;12.23;;;9.65;;
70253;SDS011;57649;42.968;1.608;2023-01-30T12:11:03;14.85;;;10.40;;
70253;SDS011;57649;42.968;1.608;2023-01-30T12:13:54;13.98;;;10.60;;
70253;SDS011;57649;42.968;1.608;2023-01-30T12:22:00;12.63;;;9.55;;
70253;SDS011;57649;42.968;1.608;2023-01-30T12:24:43;14.68;;;10.27;;
70253;SDS011;57649;42.968;1.608;2023-01-30T12:27:17;13.93;;;10.75;;
70253;SDS011;57649;42.968;1.608;2023-01-30T12:32:27;13.38;;;9.77;;
70253;SDS011;57649;42.968;1.608;2023-01-30T12:34:55;11.85;;;9.13;;
70253;SDS011;57649;42.968;1.608;2023-01-30T12:42:39;12.40;;;9.60;;
70253;SDS011;57649;42.968;1.608;2023-01-30T12:45:25;14.38;;;9.38;;
70253;SDS011;57649;42.968;1.608;2023-01-30T12:48:16;12.75;;;9.32;;
70253;SDS011;57649;42.968;1.608;2023-01-30T12:53:43;12.30;;;9.52;;
70253;SDS011;57649;42.968;1.608;2023-01-30T12:56:55;11.55;;;8.65;;
70253;SDS011;57649;42.968;1.608;2023-01-30T12:59:27;10.98;;;8.70;;
70253;SDS011;57649;42.968;1.608;2023-01-30T13:05:05;13.95;;;9.40;;
70253;SDS011;57649;42.968;1.608;2023-01-30T13:07:56;12.55;;;9.02;;
70253;SDS011;57649;42.968;1.608;2023-01-30T13:10:30;11.90;;;9.13;;
70253;SDS011;57649;42.968;1.608;2023-01-30T13:23:19;12.45;;;9.63;;
70253;SDS011;57649;42.968;1.608;2023-01-30T13:28:24;14.63;;;11.23;;
70253;SDS011;57649;42.968;1.608;2023-01-30T13:30:51;16.67;;;12.13;;
70253;SDS011;57649;42.968;1.608;2023-01-30T13:33:23;13.38;;;9.65;;
70253;SDS011;57649;42.968;1.608;2023-01-30T13:41:14;12.77;;;9.98;;
70253;SDS011;57649;42.968;1.608;2023-01-30T13:43:46;12.20;;;9.27;;
70253;SDS011;57649;42.968;1.608;2023-01-30T13:46:25;12.05;;;10.18;;
70253;SDS011;57649;42.968;1.608;2023-01-30T13:49:02;13.90;;;11.07;;
70253;SDS011;57649;42.968;1.608;2023-01-30T13:51:40;11.80;;;9.05;;
70253;SDS011;57649;42.968;1.608;2023-01-30T14:00:05;13.48;;;9.10;;
70253;SDS011;57649;42.968;1.608;2023-01-30T14:08:30;15.82;;;9.85;;
70253;SDS011;57649;42.968;1.608;2023-01-30T14:11:02;15.20;;;9.50;;
70253;SDS011;57649;42.968;1.608;2023-01-30T14:13:28;15.50;;;10.93;;
70253;SDS011;57649;42.968;1.608;2023-01-30T14:15:54;15.75;;;9.90;;
70253;SDS011;57649;42.968;1.608;2023-01-30T14:23:41;20.25;;;9.18;;
70253;SDS011;57649;42.968;1.608;2023-01-30T14:27:20;13.32;;;8.48;;
70253;SDS011;57649;42.968;1.608;2023-01-30T14:30:25;11.60;;;8.20;;
70253;SDS011;57649;42.968;1.608;2023-01-30T14:48:28;15.70;;;9.65;;
70253;SDS011;57649;42.968;1.608;2023-01-30T14:53:48;12.65;;;9.15;;
70253;SDS011;57649;42.968;1.608;2023-01-30T14:56:14;13.57;;;8.60;;
70253;SDS011;57649;42.968;1.608;2023-01-30T14:58:55;17.17;;;8.20;;
70253;SDS011;57649;42.968;1.608;2023-01-30T15:01:26;12.85;;;8.95;;
70253;SDS011;57649;42.968;1.608;2023-01-30T15:03:51;13.57;;;8.45;;
70253;SDS011;57649;42.968;1.608;2023-01-30T15:06:17;12.85;;;8.63;;
70253;SDS011;57649;42.968;1.608;2023-01-30T15:08:44;12.98;;;8.85;;
70253;SDS011;57649;42.968;1.608;2023-01-30T15:19:21;12.73;;;9.27;;
70253;SDS011;57649;42.968;1.608;2023-01-30T15:22:20;14.63;;;8.63;;
70253;SDS011;57649;42.968;1.608;2023-01-30T15:33:22;13.63;;;8.00;;
70253;SDS011;57649;42.968;1.608;2023-01-30T15:35:48;11.85;;;8.13;;
70253;SDS011;57649;42.968;1.608;2023-01-30T15:38:25;10.35;;;7.72;;
70253;SDS011;57649;42.968;1.608;2023-01-30T15:40:53;12.15;;;9.10;;
70253;SDS011;57649;42.968;1.608;2023-01-30T15:46:30;13.85;;;8.98;;
70253;SDS011;57649;42.968;1.608;2023-01-30T15:51:53;23.67;;;13.43;;
70253;SDS011;57649;42.968;1.608;2023-01-30T15:54:19;13.80;;;8.77;;
70253;SDS011;57649;42.968;1.608;2023-01-30T15:56:47;11.43;;;8.90;;
70253;SDS011;57649;42.968;1.608;2023-01-30T15:59:35;15.32;;;9.88;;
70253;SDS011;57649;42.968;1.608;2023-01-30T16:02:06;16.17;;;10.18;;
70253;SDS011;57649;42.968;1.608;2023-01-30T16:04:38;13.68;;;8.55;;
70253;SDS011;57649;42.968;1.608;2023-01-30T16:07:19;14.63;;;8.90;;
70253;SDS011;57649;42.968;1.608;2023-01-30T16:09:55;13.10;;;9.35;;
70253;SDS011;57649;42.968;1.608;2023-01-30T16:12:34;13.68;;;9.77;;
70253;SDS011;57649;42.968;1.608;2023-01-30T16:15:05;15.00;;;10.02;;
70253;SDS011;57649;42.968;1.608;2023-01-30T16:17:41;12.93;;;8.93;;
70253;SDS011;57649;42.968;1.608;2023-01-30T16:20:11;14.43;;;10.10;;
70253;SDS011;57649;42.968;1.608;2023-01-30T16:22:41;17.55;;;10.48;;
70253;SDS011;57649;42.968;1.608;2023-01-30T16:25:28;16.20;;;10.00;;
70253;SDS011;57649;42.968;1.608;2023-01-30T16:27:54;25.80;;;13.93;;
70253;SDS011;57649;42.968;1.608;2023-01-30T16:30:24;15.48;;;10.52;;
70253;SDS011;57649;42.968;1.608;2023-01-30T16:32:51;18.80;;;11.13;;
70253;SDS011;57649;42.968;1.608;2023-01-30T16:37:53;21.33;;;12.02;;
70253;SDS011;57649;42.968;1.608;2023-01-30T16:40:29;16.95;;;11.70;;
70253;SDS011;57649;42.968;1.608;2023-01-30T16:43:16;20.00;;;12.70;;
70253;SDS011;57649;42.968;1.608;2023-01-30T16:53:23;14.63;;;10.85;;
70253;SDS011;57649;42.968;1.608;2023-01-30T16:55:55;21.15;;;11.80;;
70253;SDS011;57649;42.968;1.608;2023-01-30T16:58:22;17.77;;;12.77;;
70253;SDS011;57649;42.968;1.608;2023-01-30T17:00:57;13.63;;;10.38;;
70253;SDS011;57649;42.968;1.608;2023-01-30T17:03:26;18.98;;;10.43;;
70253;SDS011;57649;42.968;1.608;2023-01-30T17:05:56;18.75;;;13.52;;
70253;SDS011;57649;42.968;1.608;2023-01-30T17:11:04;21.20;;;14.45;;
70253;SDS011;57649;42.968;1.608;2023-01-30T17:13:32;21.73;;;13.95;;
70253;SDS011;57649;42.968;1.608;2023-01-30T17:18:46;21.45;;;13.38;;
70253;SDS011;57649;42.968;1.608;2023-01-30T17:21:15;19.92;;;13.98;;
70253;SDS011;57649;42.968;1.608;2023-01-30T17:23:42;18.55;;;13.05;;
70253;SDS011;57649;42.968;1.608;2023-01-30T17:26:27;20.52;;;12.32;;
70253;SDS011;57649;42.968;1.608;2023-01-30T17:28:54;19.60;;;13.57;;
70253;SDS011;57649;42.968;1.608;2023-01-30T17:31:19;19.67;;;12.68;;
70253;SDS011;57649;42.968;1.608;2023-01-30T17:33:45;22.42;;;15.35;;
70253;SDS011;57649;42.968;1.608;2023-01-30T17:36:18;21.15;;;14.70;;
70253;SDS011;57649;42.968;1.608;2023-01-30T17:38:49;20.50;;;12.85;;
70253;SDS011;57649;42.968;1.608;2023-01-30T17:41:22;17.15;;;11.75;;
70253;SDS011;57649;42.968;1.608;2023-01-30T17:43:54;19.75;;;13.70;;
70253;SDS011;57649;42.968;1.608;2023-01-30T17:46:21;23.85;;;15.98;;
70253;SDS011;57649;42.968;1.608;2023-01-30T17:48:50;21.52;;;15.18;;
70253;SDS011;57649;42.968;1.608;2023-01-30T17:51:16;28.85;;;19.70;;
70253;SDS011;57649;42.968;1.608;2023-01-30T17:53:41;37.67;;;23.25;;
70253;SDS011;57649;42.968;1.608;2023-01-30T17:56:25;35.42;;;24.35;;
70253;SDS011;57649;42.968;1.608;2023-01-30T17:58:56;35.78;;;23.98;;